Birjand, Iran
Current Conditions -  °F | °C
As of 6:00 AM on Wednesday 22 Oct 2014 (Local Time) from OIMB Reporting Station
Clear Clear  
Wind Chill: 66°   Ceiling: Unl
Heat Index: 66°   Visibility: 6mi
Dew Point: 28°   Wind: 9mph
Humidity: 24%   Direction: 140°SE
Pressure: 30.06"   Gusts: NA
Location:  32.88°N, 59.22°E
Report Text: OIMB 220300Z 14008KT CAVOK 19/M02 Q1018
Loading
Personal Weather Stations






























Interactive Weather Map
Tropical Storm Tracking
New forecast layout! Learn more

10-Day Weather Forecast

Advertisements
Track Severe Weather on mobile